aviador You're here:

CYXS Decoded Metar

PRINCE GEORGE in BC, CANADA
Report Time2017-09-26 03:00:00
UTC Time2017-09-26 03:52:50
Flight Rules vfr VFR
Wind180° at 07 kt
W.Decomp.*RWY 15: 6.9 kt HW 1.1 kt RCW
RWY 19: 6.0 kt HW 3.6 kt LCW
RWY 24: 1.1 kt HW 6.9 kt LCW
W.Rank180° ranks 1
Current wind is below 180° avg. (8.7)
Visibility9999 m
Phenomena:N/A
Clouds:Few 075 Hf
Overcast 110 Hf
Ceiling11,000 ft
Temp13°C (ISA +2)
Dew Point13°C (100% RH)
AAT11.4°C
QNH1016 hPa
Density Alt2,671 ft
Elevation2,267 ft
Report Wrong Elevation
Raw Report
CYXS 260300Z AUTO 18007KT 9SM FEW075 OVC110 13/13 A2999 RMK SLP169
DENSITY ALT 2400FT=

Extra information for CYXS:More info

Metar Taf Metar & Taf Last 4 Metars F.Rules Stats Wind Profile Meteogram Temp Stats Airport Information Weather charts Add Link Nearby VenuesMetar ALERT Operation Metar Decoded Social comments